createdAt,value
2024-05-09T03:21:18.824Z,160.00
2024-05-09T03:22:21.788Z,180.00
2024-05-09T03:23:18.546Z,200.00
2024-05-09T03:24:18.629Z,216.00
2024-05-09T03:25:18.487Z,236.00
2024-05-09T03:26:18.602Z,264.00
2024-05-09T03:27:18.488Z,288.00
2024-05-09T03:28:18.498Z,312.00
2024-05-09T03:29:18.505Z,344.00
2024-05-09T03:30:29.318Z,376.00
2024-05-09T03:31:19.470Z,412.00
2024-05-09T03:32:18.548Z,448.00
2024-05-09T03:33:20.164Z,484.00
2024-05-09T03:34:18.492Z,524.00
2024-05-09T03:35:18.342Z,564.00
2024-05-09T03:36:18.419Z,608.00
2024-05-09T03:37:18.321Z,648.00
2024-05-09T03:38:18.532Z,692.00
2024-05-09T03:39:18.300Z,736.00
2024-05-09T03:40:23.636Z,780.00
2024-05-09T03:41:19.331Z,828.00
2024-05-09T03:42:18.232Z,876.00
2024-05-09T03:43:18.206Z,916.00
2024-05-09T03:44:18.278Z,964.00
2024-05-09T03:45:18.305Z,1012.00
2024-05-09T03:46:18.213Z,1060.00
2024-05-09T03:47:18.239Z,1116.00
2024-05-09T03:48:18.356Z,1168.00
2024-05-09T03:49:18.414Z,1224.00
2024-05-09T03:50:25.809Z,1288.00
2024-05-09T03:51:19.253Z,1360.00
2024-05-09T03:52:18.078Z,1424.00
2024-05-09T03:53:18.341Z,1488.00
2024-05-09T03:54:18.070Z,1544.00
2024-05-09T03:55:18.067Z,1604.00
2024-05-09T03:56:18.156Z,1656.00
2024-05-09T03:57:18.123Z,1712.00
2024-05-09T03:58:18.040Z,1764.00
2024-05-09T03:59:17.991Z,1816.00
2024-05-09T04:00:26.197Z,1868.00
2024-05-09T04:01:19.015Z,1928.00
2024-05-09T04:02:18.155Z,1984.00
2024-05-09T04:03:18.641Z,2040.00
2024-05-09T04:04:18.045Z,2100.00
2024-05-09T04:05:17.946Z,2148.00
2024-05-09T04:06:17.890Z,2200.00
2024-05-09T04:07:17.949Z,2252.00
2024-05-09T04:08:17.952Z,2296.00
2024-05-09T04:09:18.008Z,2344.00
2024-05-09T04:10:27.648Z,2384.00
2024-05-09T04:11:18.969Z,2428.00
2024-05-09T04:12:18.007Z,2468.00
2024-05-09T04:13:17.835Z,2508.00
2024-05-09T04:14:18.058Z,2552.00
2024-05-09T04:15:17.876Z,2592.00
2024-05-09T04:16:17.792Z,2636.00
2024-05-09T04:17:17.887Z,2684.00
2024-05-09T04:18:17.888Z,2724.00
2024-05-09T04:19:18.020Z,2768.00
2024-05-09T04:20:28.767Z,2812.00
2024-05-09T04:21:18.740Z,2852.00
2024-05-09T04:22:17.731Z,2888.00
2024-05-09T04:23:17.889Z,2936.00
2024-05-09T04:24:17.824Z,2984.00
2024-05-09T04:25:17.649Z,3036.00
2024-05-09T04:26:17.756Z,3080.00
2024-05-09T04:27:17.738Z,3132.00
2024-05-09T04:28:17.683Z,3184.00
2024-05-09T04:29:17.666Z,3232.00
2024-05-09T04:30:25.755Z,3276.00
2024-05-09T04:31:18.723Z,3328.00
2024-05-09T04:32:17.827Z,3364.00
2024-05-09T04:33:28.853Z,3416.00
2024-05-09T04:34:32.524Z,3468.00
2024-05-09T04:36:41.619Z,3588.00
2024-05-09T04:37:38.814Z,3636.00
2024-05-09T04:38:55.720Z,3692.00
2024-05-09T04:39:38.705Z,3744.00
2024-05-09T04:43:39.717Z,3944.00
2024-05-09T04:44:39.384Z,3984.00
2024-05-09T04:45:39.462Z,4032.00
2024-05-09T04:46:39.260Z,4100.00
2024-05-09T04:47:39.441Z,4144.00
2024-05-09T04:48:39.459Z,4200.00
2024-05-09T04:49:39.429Z,4248.00
2024-05-09T04:50:39.954Z,4296.00
2024-05-09T04:51:39.249Z,4336.00
2024-05-09T04:52:39.186Z,4372.00
2024-05-09T04:53:39.394Z,4408.00
2024-05-09T04:54:39.152Z,4448.00
2024-05-09T04:55:39.931Z,4496.00
2024-05-09T04:56:39.173Z,4536.00
2024-05-09T04:57:39.135Z,4564.00
2024-05-09T04:58:39.271Z,4596.00
2024-05-09T04:59:39.183Z,4616.00
2024-05-09T05:00:40.465Z,4624.00
2024-05-09T05:01:39.132Z,4632.00
2024-05-09T05:02:39.081Z,4676.00
2024-05-09T05:03:39.466Z,4732.00
2024-05-09T05:04:39.035Z,4772.00
2024-05-09T05:05:39.135Z,4824.00
2024-05-09T05:06:39.034Z,4864.00
2024-05-09T05:07:39.173Z,4876.00
2024-05-09T05:08:39.148Z,4892.00
2024-05-09T05:09:39.010Z,4932.00
2024-05-09T05:10:38.956Z,5012.00
2024-05-09T05:11:39.030Z,5084.00
2024-05-09T05:12:38.891Z,5088.00
2024-05-09T05:13:41.342Z,5104.00
2024-05-09T05:14:38.956Z,5144.00
2024-05-09T05:15:38.889Z,5184.00
2024-05-09T05:16:38.996Z,5212.00
2024-05-09T05:17:39.100Z,5212.00
2024-05-09T05:18:38.985Z,5208.00
2024-05-09T05:19:38.960Z,5220.00
2024-05-09T05:20:38.947Z,5232.00
2024-05-09T05:21:38.794Z,5264.00
2024-05-09T05:22:38.833Z,5276.00
2024-05-09T05:23:38.884Z,5324.00
2024-05-09T05:24:38.795Z,5344.00
2024-05-09T05:25:38.775Z,5380.00
2024-05-09T05:26:38.733Z,5436.00
2024-05-09T05:27:38.867Z,5492.00
2024-05-09T05:28:38.677Z,5520.00
2024-05-09T05:29:38.837Z,5552.00
2024-05-09T05:30:38.773Z,5600.00
2024-05-09T05:31:38.812Z,5664.00
2024-05-09T05:32:38.958Z,5852.00
2024-05-09T05:33:39.128Z,6172.00
2024-05-09T05:34:38.686Z,6440.00
2024-05-09T05:35:38.686Z,6576.00
2024-05-09T05:36:38.587Z,6564.00
2024-05-09T05:37:38.578Z,6476.00
2024-05-09T05:38:38.577Z,6300.00
2024-05-09T05:39:38.565Z,6456.00
2024-05-09T05:40:39.764Z,6828.00
2024-05-09T05:41:38.550Z,7208.00
2024-05-09T05:42:38.569Z,7752.00
2024-05-09T05:43:38.601Z,8056.00
2024-05-09T05:44:38.620Z,8448.00
2024-05-09T05:45:39.270Z,8616.00
2024-05-09T05:46:38.552Z,8664.00
2024-05-09T05:47:38.846Z,8616.00
2024-05-09T05:48:38.605Z,8664.00
2024-05-09T05:49:38.558Z,8516.00
2024-05-09T05:50:38.948Z,8848.00
2024-05-09T05:51:38.659Z,8940.00
2024-05-09T05:52:38.445Z,8996.00
2024-05-09T05:53:38.630Z,8980.00
2024-05-09T05:54:38.389Z,9020.00
2024-05-09T05:55:38.330Z,9040.00
2024-05-09T05:56:38.426Z,9024.00
2024-05-09T05:57:38.380Z,8932.00
2024-05-09T05:58:38.494Z,9132.00
2024-05-09T05:59:38.629Z,9588.00
2024-05-09T06:00:40.176Z,9376.00
2024-05-09T06:01:38.381Z,9004.00
2024-05-09T06:02:38.821Z,8936.00
2024-05-09T06:03:38.696Z,8960.00
2024-05-09T06:04:38.373Z,8880.00
2024-05-09T06:05:38.242Z,8892.00
2024-05-09T06:06:38.184Z,8792.00
2024-05-09T06:07:38.157Z,8712.00
2024-05-09T06:08:38.164Z,8684.00
2024-05-09T06:09:38.073Z,8688.00
2024-05-09T06:10:40.346Z,8716.00
2024-05-09T06:11:38.314Z,8696.00
2024-05-09T06:12:38.163Z,8684.00
2024-05-09T06:13:38.039Z,8684.00
2024-05-09T06:14:38.058Z,8692.00
2024-05-09T06:15:38.043Z,8728.00
2024-05-09T06:16:38.024Z,8776.00
2024-05-09T06:17:38.085Z,8840.00
2024-05-09T06:18:38.099Z,8892.00
2024-05-09T06:19:38.106Z,8940.00
2024-05-09T06:20:38.581Z,9000.00
2024-05-09T06:21:37.891Z,9064.00
2024-05-09T06:22:37.912Z,9084.00
2024-05-09T06:23:38.124Z,9124.00
2024-05-09T06:24:37.914Z,9164.00
2024-05-09T06:25:38.131Z,9164.00
2024-05-09T06:26:37.893Z,9180.00
2024-05-09T06:27:37.804Z,9204.00
2024-05-09T06:28:37.834Z,9272.00
2024-05-09T06:29:37.868Z,9380.00
2024-05-09T06:30:40.702Z,9428.00
2024-05-09T06:31:37.797Z,9552.00
2024-05-09T06:32:37.953Z,9636.00
2024-05-09T06:33:37.864Z,9716.00
2024-05-09T06:34:37.946Z,9780.00
2024-05-09T06:35:38.159Z,9852.00
2024-05-09T06:36:37.765Z,9920.00
2024-05-09T06:37:37.682Z,9968.00
2024-05-09T06:38:37.819Z,10044.00
2024-05-09T06:39:37.661Z,10120.00
2024-05-09T06:40:39.807Z,10220.00
2024-05-09T06:41:37.638Z,10324.00
2024-05-09T06:42:37.703Z,10400.00
2024-05-09T06:43:37.580Z,10640.00
2024-05-09T06:44:37.606Z,10856.00
2024-05-09T06:45:37.544Z,11152.00
2024-05-09T06:46:37.540Z,11500.00
2024-05-09T06:47:37.827Z,12020.00
2024-05-09T06:48:37.870Z,12860.00
2024-05-09T06:49:37.585Z,14224.00
2024-05-09T06:50:39.209Z,15236.00
2024-05-09T06:51:37.505Z,15968.00
2024-05-09T06:52:37.481Z,16444.00
2024-05-09T06:53:37.608Z,17088.00
2024-05-09T06:54:37.451Z,17792.00
2024-05-09T06:55:37.807Z,18528.00
2024-05-09T06:56:37.457Z,19040.00
2024-05-09T06:57:39.086Z,19136.00
2024-05-09T06:58:37.379Z,18336.00
2024-05-09T06:59:37.450Z,18816.00
2024-05-09T07:00:40.071Z,20160.00
2024-05-09T07:01:37.367Z,20832.00
2024-05-09T07:02:37.389Z,21280.00
2024-05-09T07:03:37.486Z,21184.00
2024-05-09T07:04:37.473Z,21344.00
2024-05-09T07:05:37.323Z,21952.00
2024-05-09T07:06:37.283Z,22432.00
2024-05-09T07:07:37.261Z,22592.00
2024-05-09T07:08:37.279Z,22912.00
2024-05-09T07:09:37.235Z,23616.00
2024-05-09T07:10:37.597Z,23296.00
2024-05-09T07:11:37.287Z,22656.00
2024-05-09T07:12:37.162Z,22336.00
2024-05-09T07:13:37.189Z,22528.00
2024-05-09T07:14:38.357Z,22208.00
2024-05-09T07:15:37.141Z,23232.00
2024-05-09T07:16:37.242Z,23488.00
2024-05-09T07:17:37.250Z,23584.00
2024-05-09T07:18:37.407Z,23552.00
2024-05-09T07:19:37.224Z,23744.00
2024-05-09T07:20:37.139Z,24128.00
2024-05-09T07:21:37.058Z,24160.00
2024-05-09T07:22:37.052Z,24544.00
2024-05-09T07:23:37.178Z,25184.00
2024-05-09T07:24:37.059Z,25952.00
2024-05-09T07:25:37.014Z,26048.00
2024-05-09T07:26:37.137Z,26304.00
2024-05-09T07:27:36.970Z,26432.00
2024-05-09T07:28:37.014Z,26432.00
2024-05-09T07:29:38.687Z,26784.00
2024-05-09T07:30:36.991Z,27200.00
2024-05-09T07:31:36.935Z,27520.00
2024-05-09T07:32:37.015Z,27360.00
2024-05-09T07:33:37.077Z,27040.00
2024-05-09T07:34:36.907Z,27744.00
2024-05-09T07:35:36.932Z,27488.00
2024-05-09T07:36:36.915Z,28000.00
2024-05-09T07:37:36.896Z,28768.00
2024-05-09T07:38:37.025Z,28768.00
2024-05-09T07:39:36.804Z,29568.00
2024-05-09T07:40:37.252Z,31264.00
2024-05-09T07:41:36.862Z,31616.00
2024-05-09T07:42:36.769Z,31488.00
2024-05-09T07:43:36.801Z,32000.00
2024-05-09T07:44:36.781Z,32896.00
2024-05-09T07:45:48.450Z,33216.00
2024-05-09T07:47:44.995Z,33504.00
2024-05-09T07:50:34.646Z,35296.00
2024-05-09T07:53:14.233Z,36896.00
2024-05-09T07:53:33.552Z,37152.00
2024-05-09T07:53:43.287Z,38016.00
2024-05-09T07:54:37.781Z,39264.00
2024-05-09T07:55:36.787Z,40256.00
2024-05-09T07:56:36.771Z,41376.00
2024-05-09T07:57:36.667Z,41152.00
2024-05-09T07:58:36.556Z,40416.00
2024-05-09T07:59:38.045Z,39584.00
2024-05-09T08:00:36.612Z,33440.00
2024-05-09T08:01:36.640Z,33408.00
2024-05-09T08:02:36.511Z,37056.00
2024-05-09T08:03:36.681Z,33088.00
2024-05-09T08:04:36.620Z,34336.00
2024-05-09T08:05:36.580Z,35776.00
2024-05-09T08:06:36.902Z,37312.00
2024-05-09T08:07:36.430Z,33984.00
2024-05-09T08:08:36.390Z,38688.00
2024-05-09T08:09:38.003Z,38048.00
2024-05-09T08:10:36.435Z,40224.00
2024-05-09T08:11:36.471Z,42720.00
2024-05-09T08:12:36.470Z,44832.00
2024-05-09T08:13:36.386Z,45728.00
2024-05-09T08:14:36.328Z,45152.00
2024-05-09T08:15:36.514Z,45792.00
2024-05-09T08:16:36.339Z,43392.00
2024-05-09T08:17:36.493Z,44128.00
2024-05-09T08:18:36.398Z,43264.00
2024-05-09T08:19:36.280Z,45536.00
2024-05-09T08:20:36.298Z,43360.00
2024-05-09T08:21:36.384Z,45632.00
2024-05-09T08:22:36.235Z,46080.00
2024-05-09T08:23:36.276Z,46816.00
2024-05-09T08:24:36.309Z,46240.00
2024-05-09T08:25:36.163Z,47424.00
2024-05-09T08:26:36.253Z,47904.00
2024-05-09T08:27:36.209Z,47936.00
2024-05-09T08:28:36.455Z,48768.00
2024-05-09T08:29:36.119Z,49056.00
2024-05-09T08:30:37.773Z,48576.00
2024-05-09T08:31:36.135Z,48256.00
2024-05-09T08:32:36.127Z,45312.00
2024-05-09T08:33:36.687Z,44352.00
2024-05-09T08:34:36.081Z,44576.00
2024-05-09T08:35:36.130Z,44832.00
2024-05-09T08:36:36.129Z,46208.00
2024-05-09T08:37:38.910Z,47296.00
2024-05-09T08:38:36.029Z,49632.00
2024-05-09T08:39:35.978Z,50848.00
2024-05-09T08:40:37.637Z,52704.00
2024-05-09T08:41:36.126Z,52928.00
2024-05-09T08:42:35.957Z,51360.00
2024-05-09T08:43:38.238Z,51392.00
2024-05-09T08:44:35.906Z,50112.00
2024-05-09T08:45:36.063Z,51392.00
2024-05-09T08:46:36.005Z,52576.00
2024-05-09T08:47:36.081Z,54368.00
2024-05-09T08:48:36.008Z,55136.00
2024-05-09T08:49:37.716Z,56032.00
2024-05-09T08:50:38.959Z,55584.00
2024-05-09T08:51:35.910Z,56288.00
2024-05-09T08:52:35.822Z,56736.00
2024-05-09T08:53:35.870Z,56896.00
2024-05-09T08:54:35.836Z,58496.00
2024-05-09T08:55:38.168Z,60000.00
2024-05-09T08:56:35.790Z,58720.00
2024-05-09T08:57:35.793Z,54240.00
2024-05-09T08:58:35.974Z,54496.00
2024-05-09T08:59:35.687Z,56896.00
2024-05-09T09:00:37.410Z,57472.00
2024-05-09T09:01:37.256Z,58336.00
2024-05-09T09:02:35.797Z,58368.00
2024-05-09T09:03:36.058Z,58144.00
2024-05-09T09:04:35.763Z,59616.00
2024-05-09T09:05:35.770Z,61280.00
2024-05-09T09:06:35.778Z,54432.00
2024-05-09T09:07:35.615Z,61152.00
2024-05-09T09:08:35.563Z,61056.00
2024-05-09T09:09:35.631Z,63552.00
2024-05-09T09:10:35.886Z,62784.00
2024-05-09T09:11:35.614Z,63328.00
2024-05-09T09:12:35.555Z,62336.00
2024-05-09T09:13:35.544Z,62272.00
2024-05-09T09:14:35.487Z,59104.00
2024-05-09T09:15:35.539Z,56096.00
2024-05-09T09:16:35.486Z,56480.00
2024-05-09T09:17:35.593Z,58752.00
2024-05-09T09:18:35.567Z,58816.00
2024-05-09T09:19:35.571Z,60736.00
2024-05-09T09:20:36.877Z,62368.00
2024-05-09T09:21:35.477Z,63904.00
2024-05-09T09:22:35.387Z,65568.00
2024-05-09T09:23:35.407Z,65920.00
2024-05-09T09:24:35.437Z,65568.00
2024-05-09T09:25:35.635Z,67168.00
2024-05-09T09:26:35.315Z,66528.00
2024-05-09T09:27:35.393Z,63104.00
2024-05-09T09:28:35.298Z,64800.00
2024-05-09T09:29:35.293Z,62464.00
2024-05-09T09:30:37.888Z,61664.00
2024-05-09T09:31:35.314Z,62208.00
2024-05-09T09:32:35.319Z,63040.00
2024-05-09T09:33:35.913Z,61152.00
2024-05-09T09:34:35.337Z,60704.00
2024-05-09T09:35:35.268Z,60544.00
2024-05-09T09:36:35.298Z,62592.00
2024-05-09T09:37:35.205Z,60224.00
2024-05-09T09:38:35.144Z,59200.00
2024-05-09T09:39:35.274Z,56608.00
2024-05-09T09:40:38.711Z,59680.00
2024-05-09T09:41:36.409Z,61120.00
2024-05-09T09:42:35.105Z,62656.00
2024-05-09T09:43:35.157Z,66336.00
2024-05-09T09:44:37.355Z,68384.00
2024-05-09T09:45:35.069Z,70112.00
2024-05-09T09:46:35.149Z,71200.00
2024-05-09T09:47:35.282Z,72800.00
2024-05-09T09:48:35.162Z,73504.00
2024-05-09T09:49:35.109Z,72640.00
2024-05-09T09:50:35.443Z,73088.00
2024-05-09T09:51:35.172Z,71456.00
2024-05-09T09:52:35.056Z,71744.00
2024-05-09T09:53:35.015Z,71712.00
2024-05-09T09:54:35.004Z,71712.00
2024-05-09T09:55:34.939Z,69024.00
2024-05-09T09:56:35.122Z,66944.00
2024-05-09T09:57:35.027Z,65504.00
2024-05-09T09:58:34.967Z,66848.00
2024-05-09T09:59:34.871Z,68704.00
2024-05-09T10:00:34.996Z,68544.00
2024-05-09T10:01:35.055Z,70176.00
2024-05-09T10:02:34.946Z,70624.00
2024-05-09T10:03:35.346Z,70208.00
2024-05-09T10:04:34.967Z,71648.00
2024-05-09T10:05:35.070Z,71776.00
2024-05-09T10:06:34.899Z,72224.00
2024-05-09T10:07:34.772Z,73600.00
2024-05-09T10:08:34.913Z,73920.00
2024-05-09T10:09:34.817Z,73600.00
2024-05-09T10:10:35.029Z,72992.00
2024-05-09T10:11:41.883Z,70112.00
2024-05-09T10:12:35.976Z,69696.00
2024-05-09T10:13:35.078Z,67360.00
2024-05-09T10:14:34.719Z,62784.00
2024-05-09T10:15:34.689Z,60480.00
2024-05-09T10:16:34.798Z,58144.00
2024-05-09T10:17:34.825Z,59680.00
2024-05-09T10:18:34.855Z,60256.00
2024-05-09T10:19:34.720Z,58528.00
2024-05-09T10:20:34.649Z,61248.00
2024-05-09T10:21:34.641Z,64064.00
2024-05-09T10:22:34.558Z,68000.00
2024-05-09T10:23:34.786Z,67360.00
2024-05-09T10:24:34.625Z,64640.00
2024-05-09T10:25:34.517Z,69088.00
2024-05-09T10:26:34.516Z,62912.00
2024-05-09T10:27:34.587Z,63168.00
2024-05-09T10:28:34.554Z,63584.00
2024-05-09T10:29:34.525Z,63968.00
2024-05-09T10:30:36.319Z,64576.00
2024-05-09T10:31:34.606Z,66944.00
2024-05-09T10:32:34.508Z,66464.00
2024-05-09T10:33:34.539Z,72736.00
2024-05-09T10:34:34.504Z,75776.00
2024-05-09T10:35:34.479Z,77248.00
2024-05-09T10:36:34.400Z,77472.00
2024-05-09T10:37:34.446Z,78656.00
2024-05-09T10:38:34.371Z,79648.00
2024-05-09T10:39:34.503Z,72704.00
2024-05-09T10:40:34.350Z,76672.00
2024-05-09T10:41:34.348Z,76032.00
2024-05-09T10:42:34.356Z,78080.00
2024-05-09T10:43:34.330Z,74400.00
2024-05-09T10:44:34.324Z,75904.00
2024-05-09T10:45:34.326Z,66144.00
2024-05-09T10:46:34.283Z,69568.00
2024-05-09T10:47:34.346Z,66176.00
2024-05-09T10:48:34.461Z,64512.00
2024-05-09T10:49:34.334Z,65216.00
2024-05-09T10:50:34.763Z,64384.00
2024-05-09T10:51:34.240Z,72992.00
2024-05-09T10:52:34.204Z,78784.00
2024-05-09T10:53:34.187Z,81568.00
2024-05-09T10:54:34.440Z,87584.00
2024-05-09T10:55:34.202Z,87104.00
2024-05-09T10:56:34.167Z,87232.00
2024-05-09T10:57:34.178Z,83296.00
2024-05-09T10:58:34.168Z,80000.00
2024-05-09T10:59:34.090Z,86528.00
2024-05-09T11:00:36.318Z,89856.00
2024-05-09T11:01:34.253Z,84608.00
2024-05-09T11:02:34.245Z,85888.00
2024-05-09T11:03:34.360Z,83776.00
2024-05-09T11:04:34.191Z,83584.00
2024-05-09T11:05:34.279Z,84320.00
2024-05-09T11:06:34.041Z,82208.00
2024-05-09T11:07:34.104Z,80896.00
2024-05-09T11:08:34.039Z,83392.00
2024-05-09T11:09:34.062Z,87136.00
2024-05-09T11:10:34.716Z,86336.00
2024-05-09T11:11:34.145Z,85344.00
2024-05-09T11:12:34.007Z,84736.00
2024-05-09T11:13:33.979Z,81728.00
2024-05-09T11:14:34.002Z,88288.00
2024-05-09T11:15:34.662Z,80032.00
2024-05-09T11:16:33.912Z,83872.00
2024-05-09T11:17:34.076Z,81344.00
2024-05-09T11:18:37.789Z,74816.00
2024-05-09T11:19:34.945Z,75328.00
2024-05-09T11:20:35.476Z,77696.00
2024-05-09T11:21:33.950Z,74272.00
2024-05-09T11:22:33.830Z,71456.00
2024-05-09T11:23:35.022Z,72448.00
2024-05-09T11:24:33.830Z,71072.00
2024-05-09T11:25:33.799Z,79744.00
2024-05-09T11:26:33.870Z,83136.00
2024-05-09T11:27:33.777Z,84224.00
2024-05-09T11:28:33.760Z,87168.00
2024-05-09T11:29:33.711Z,92416.00
2024-05-09T11:30:33.975Z,87104.00
2024-05-09T11:31:33.809Z,79712.00
2024-05-09T11:32:33.868Z,59392.00
2024-05-09T11:33:34.378Z,97856.00
2024-05-09T11:34:33.712Z,100608.00
2024-05-09T11:35:33.691Z,98336.00
2024-05-09T11:36:33.754Z,94528.00
2024-05-09T11:37:36.802Z,92096.00
2024-05-09T11:38:33.646Z,96832.00
2024-05-09T11:39:33.819Z,95168.00
2024-05-09T11:40:34.658Z,95840.00
2024-05-09T11:41:33.540Z,94688.00
2024-05-09T11:42:33.673Z,69504.00
2024-05-09T11:43:33.719Z,76928.00
2024-05-09T11:44:33.587Z,86944.00
2024-05-09T11:45:33.592Z,87808.00
2024-05-09T11:46:33.563Z,93216.00
2024-05-09T11:47:33.630Z,91936.00
2024-05-09T11:48:33.793Z,93152.00
2024-05-09T11:49:33.719Z,42816.00
2024-05-09T11:50:35.894Z,40032.00
2024-05-09T11:51:33.514Z,73760.00
2024-05-09T11:52:33.407Z,94048.00
2024-05-09T11:53:33.414Z,95360.00
2024-05-09T11:54:33.469Z,99968.00
2024-05-09T11:55:33.531Z,90304.00
2024-05-09T11:56:33.376Z,82304.00
2024-05-09T11:57:33.448Z,55360.00
2024-05-09T11:58:33.475Z,65216.00
2024-05-09T11:59:33.368Z,66464.00
2024-05-09T12:00:37.155Z,69856.00
2024-05-09T12:01:33.444Z,85952.00
2024-05-09T12:02:33.416Z,71680.00
2024-05-09T12:03:33.371Z,68832.00
2024-05-09T12:04:33.446Z,74624.00
2024-05-09T12:05:34.343Z,64704.00
2024-05-09T12:06:33.401Z,58592.00
2024-05-09T12:07:33.216Z,66208.00
2024-05-09T12:08:33.314Z,60864.00
2024-05-09T12:09:33.357Z,54848.00
2024-05-09T12:10:35.625Z,52448.00
2024-05-09T12:11:33.366Z,56576.00
2024-05-09T12:12:35.369Z,53088.00
2024-05-09T12:13:33.231Z,62816.00
2024-05-09T12:14:33.175Z,56928.00
2024-05-09T12:15:33.226Z,57280.00
2024-05-09T12:16:33.354Z,63200.00
2024-05-09T12:17:33.240Z,57248.00
2024-05-09T12:18:33.467Z,57152.00
2024-05-09T12:19:33.185Z,52384.00
2024-05-09T12:20:37.369Z,61600.00
2024-05-09T12:21:34.086Z,81344.00
2024-05-09T12:22:33.020Z,77024.00
2024-05-09T12:23:33.080Z,78976.00
2024-05-09T12:24:33.127Z,74624.00
2024-05-09T12:25:33.034Z,77440.00
2024-05-09T12:26:32.971Z,75808.00
2024-05-09T12:27:33.023Z,69920.00
2024-05-09T12:28:33.048Z,75808.00
2024-05-09T12:29:34.953Z,91904.00
2024-05-09T12:30:37.992Z,89664.00
2024-05-09T12:31:34.011Z,94336.00
2024-05-09T12:32:32.979Z,88864.00
2024-05-09T12:33:33.037Z,85152.00
2024-05-09T12:34:32.922Z,80864.00
2024-05-09T12:35:33.122Z,68256.00
2024-05-09T12:36:32.960Z,76896.00
2024-05-09T12:37:32.829Z,84064.00
2024-05-09T12:38:32.855Z,78944.00
2024-05-09T12:39:32.876Z,82624.00
2024-05-09T12:40:37.395Z,61088.00
2024-05-09T12:41:32.815Z,50432.00
2024-05-09T12:43:32.930Z,70464.00
2024-05-09T12:44:32.734Z,60672.00
2024-05-09T12:45:32.897Z,73440.00
2024-05-09T12:46:32.767Z,74336.00
2024-05-09T12:47:32.843Z,73760.00
2024-05-09T12:48:32.901Z,72224.00
2024-05-09T12:49:32.961Z,73056.00
2024-05-09T12:50:34.393Z,74688.00
2024-05-09T12:51:32.764Z,34432.00
2024-05-09T12:52:32.672Z,33888.00
2024-05-09T12:53:32.660Z,32992.00
2024-05-09T12:54:32.674Z,36000.00
2024-05-09T12:55:40.625Z,70816.00
2024-05-09T12:56:33.660Z,63104.00
2024-05-09T12:57:32.750Z,46976.00
2024-05-09T12:58:32.574Z,78368.00
2024-05-09T12:59:32.578Z,77632.00
2024-05-09T13:00:34.288Z,81920.00
2024-05-09T13:01:32.655Z,53216.00
2024-05-09T13:02:32.676Z,77312.00
2024-05-09T13:03:32.674Z,48512.00
2024-05-09T13:04:32.609Z,37696.00
2024-05-09T13:05:32.651Z,56608.00
2024-05-09T13:06:32.621Z,73792.00
2024-05-09T13:07:32.467Z,61120.00
2024-05-09T13:08:32.499Z,76384.00
2024-05-09T13:09:32.529Z,54176.00
2024-05-09T13:10:33.496Z,67776.00
2024-05-09T13:11:32.455Z,51904.00
2024-05-09T13:12:32.546Z,56672.00
2024-05-09T13:13:32.373Z,28832.00
2024-05-09T13:14:32.436Z,29184.00
2024-05-09T13:15:32.765Z,28288.00
2024-05-09T13:16:32.451Z,28768.00
2024-05-09T13:17:32.382Z,31040.00
2024-05-09T13:18:32.538Z,71360.00
2024-05-09T13:19:32.396Z,67648.00
2024-05-09T13:20:34.570Z,70016.00
2024-05-09T13:21:32.326Z,65184.00
2024-05-09T13:22:32.282Z,63776.00
2024-05-09T13:23:32.242Z,68672.00
2024-05-09T13:24:32.278Z,67680.00
2024-05-09T13:25:32.198Z,69504.00
2024-05-09T13:26:32.236Z,73472.00
2024-05-09T13:27:32.274Z,72224.00
2024-05-09T13:28:32.353Z,75456.00
2024-05-09T13:29:32.172Z,80000.00
2024-05-09T13:30:39.333Z,80256.00
2024-05-09T13:31:33.174Z,81568.00
2024-05-09T13:32:32.221Z,81120.00
2024-05-09T13:33:32.254Z,81824.00
2024-05-09T13:34:32.138Z,79200.00
2024-05-09T13:35:32.139Z,77920.00
2024-05-09T13:36:32.182Z,65728.00
2024-05-09T13:37:32.055Z,29888.00
2024-05-09T13:38:32.062Z,29184.00
2024-05-09T13:39:32.097Z,28768.00
2024-05-09T13:40:34.922Z,28800.00
2024-05-09T13:41:32.014Z,29248.00
2024-05-09T13:42:32.022Z,31360.00
2024-05-09T13:43:32.035Z,57856.00
2024-05-09T13:44:32.045Z,54592.00
2024-05-09T13:45:32.152Z,57184.00
2024-05-09T13:46:32.023Z,55872.00
2024-05-09T13:47:32.298Z,56160.00
2024-05-09T13:48:32.752Z,68256.00
2024-05-09T13:49:32.808Z,68992.00
2024-05-09T13:50:35.686Z,37696.00
2024-05-09T13:51:32.925Z,64192.00
2024-05-09T13:52:31.891Z,70656.00
2024-05-09T13:53:31.971Z,74208.00
2024-05-09T13:54:31.873Z,73024.00
2024-05-09T13:55:31.809Z,63872.00
2024-05-09T13:56:31.855Z,61088.00
2024-05-09T13:57:31.841Z,59808.00
2024-05-09T13:58:32.203Z,75200.00
2024-05-09T13:59:31.838Z,69120.00
2024-05-09T14:00:43.659Z,70592.00
2024-05-09T14:01:32.854Z,72832.00
2024-05-09T14:02:31.850Z,71936.00
2024-05-09T14:03:31.921Z,69856.00
2024-05-09T14:04:31.836Z,68928.00
2024-05-09T14:05:31.827Z,65632.00
2024-05-09T14:06:31.760Z,63872.00
2024-05-09T14:07:31.680Z,61376.00
2024-05-09T14:08:31.633Z,51136.00
2024-05-09T14:09:31.671Z,47104.00
2024-05-09T14:10:32.512Z,41312.00
2024-05-09T14:11:31.734Z,42784.00
2024-05-09T14:12:31.626Z,44096.00
2024-05-09T14:13:31.590Z,44352.00
2024-05-09T14:14:31.569Z,45120.00
2024-05-09T14:15:31.614Z,44448.00
2024-05-09T14:16:31.708Z,45088.00
2024-05-09T14:17:31.707Z,45888.00
2024-05-09T14:18:31.672Z,48896.00
2024-05-09T14:19:31.505Z,48736.00
2024-05-09T14:20:32.525Z,50400.00
2024-05-09T14:21:31.663Z,52864.00
2024-05-09T14:22:31.480Z,50624.00
2024-05-09T14:23:31.479Z,54816.00
2024-05-09T14:24:31.537Z,60000.00
2024-05-09T14:25:31.448Z,67552.00
2024-05-09T14:26:31.496Z,70592.00
2024-05-09T14:27:31.454Z,69920.00
2024-05-09T14:28:31.435Z,68896.00
2024-05-09T14:29:31.379Z,67136.00
2024-05-09T14:30:36.966Z,67264.00
2024-05-09T14:31:33.345Z,68032.00
2024-05-09T14:32:31.468Z,67904.00
2024-05-09T14:33:31.542Z,61088.00
2024-05-09T14:34:31.412Z,62688.00
2024-05-09T14:35:31.310Z,64544.00
2024-05-09T14:36:31.326Z,66912.00
2024-05-09T14:37:31.281Z,69440.00
2024-05-09T14:38:31.273Z,72992.00
2024-05-09T14:39:31.305Z,70400.00
2024-05-09T14:40:39.850Z,70176.00
2024-05-09T14:41:32.237Z,71296.00
2024-05-09T14:42:31.241Z,70112.00
2024-05-09T14:43:31.358Z,67936.00
2024-05-09T14:44:31.157Z,66944.00
2024-05-09T14:45:31.307Z,63360.00
2024-05-09T14:46:31.166Z,61056.00
2024-05-09T14:47:31.203Z,61856.00
2024-05-09T14:48:31.299Z,62208.00
2024-05-09T14:49:31.277Z,62816.00
2024-05-09T14:50:36.653Z,61120.00
2024-05-09T14:51:32.136Z,61984.00
2024-05-09T14:52:31.117Z,60480.00
2024-05-09T14:53:31.070Z,64544.00
2024-05-09T14:54:31.063Z,63936.00
2024-05-09T14:55:31.151Z,62880.00
2024-05-09T14:56:31.041Z,66272.00
2024-05-09T14:57:31.120Z,69568.00
2024-05-09T14:58:31.108Z,67456.00
2024-05-09T14:59:30.974Z,69248.00
2024-05-09T15:00:35.869Z,68608.00
2024-05-09T15:01:32.641Z,69280.00
2024-05-09T15:02:30.976Z,68320.00
2024-05-09T15:03:31.025Z,66592.00
2024-05-09T15:04:31.025Z,61344.00
2024-05-09T15:05:30.926Z,59264.00
2024-05-09T15:06:30.989Z,55456.00
2024-05-09T15:07:30.919Z,49920.00
2024-05-09T15:08:31.330Z,53568.00
2024-05-09T15:09:30.881Z,54880.00
2024-05-09T15:10:35.044Z,54464.00
2024-05-09T15:11:31.876Z,53056.00
2024-05-09T15:12:30.824Z,50944.00
2024-05-09T15:13:30.939Z,46944.00
2024-05-09T15:14:30.748Z,48672.00
2024-05-09T15:15:31.002Z,46336.00
2024-05-09T15:16:30.755Z,45312.00
2024-05-09T15:17:30.848Z,45472.00
2024-05-09T15:18:31.019Z,45536.00
2024-05-09T15:19:30.836Z,43328.00